Time;durP1;ratioP1;P1;durP2;ratioP2;P2;SDS_P1;SDS_P2;PMS_P1;PMS_P2;Temp;Humidity;BMP_temperature;BMP_pressure;BME280_temperature;BME280_humidity;BME280_pressure;Samples;Min_cycle;Max_cycle;Signal;HPM_P1;HPM_P2
2021/12/12 00:01:22;;;;;;;5.97;3.63;;;7.80;96.30;;;;;;5023781;28;20086;-87
2021/12/12 00:03:53;;;;;;;8.82;3.75;;;7.80;96.40;;;;;;5007631;28;20116;-86
2021/12/12 00:06:30;;;;;;;8.45;3.67;;;7.80;96.40;;;;;;5021360;28;20040;-86
2021/12/12 00:09:05;;;;;;;7.88;3.45;;;7.80;96.30;;;;;;5010484;28;20561;-86
2021/12/12 00:11:32;;;;;;;7.32;3.83;;;7.70;96.40;;;;;;5032648;28;20021;-87
2021/12/12 00:14:10;;;;;;;6.97;3.72;;;7.70;96.40;;;;;;5007881;28;20225;-87
2021/12/12 00:16:37;;;;;;;9.20;4.20;;;7.80;96.40;;;;;;5001146;28;20035;-87
2021/12/12 00:19:04;;;;;;;7.55;3.85;;;7.70;96.40;;;;;;5026670;28;20059;-87
2021/12/12 00:21:32;;;;;;;8.18;3.53;;;7.80;96.40;;;;;;5035677;28;20548;-86
2021/12/12 00:23:58;;;;;;;5.80;3.33;;;7.70;96.40;;;;;;5040896;28;20040;-87
2021/12/12 00:26:24;;;;;;;10.52;4.07;;;7.70;96.50;;;;;;5022737;28;20386;-86
2021/12/12 00:28:51;;;;;;;9.95;4.13;;;7.70;96.50;;;;;;5014980;28;20020;-86
2021/12/12 00:31:19;;;;;;;5.90;3.13;;;7.70;96.50;;;;;;5029989;28;20354;-88
2021/12/12 00:33:47;;;;;;;6.57;3.03;;;7.70;96.50;;;;;;5008198;28;20102;-87
2021/12/12 00:36:17;;;;;;;7.93;4.10;;;7.70;96.60;;;;;;5002344;28;20173;-87
2021/12/12 00:38:47;;;;;;;5.35;3.17;;;7.70;96.60;;;;;;5018838;28;20036;-87
2021/12/12 00:41:16;;;;;;;8.45;3.70;;;7.70;96.60;;;;;;5012428;28;20228;-87
2021/12/12 00:43:52;;;;;;;8.88;3.92;;;7.70;96.70;;;;;;5016777;28;20056;-87
2021/12/12 00:46:20;;;;;;;7.63;4.15;;;7.70;96.70;;;;;;5006315;28;20614;-87
2021/12/12 00:48:48;;;;;;;7.95;4.20;;;7.70;96.80;;;;;;5017993;28;20090;-86
2021/12/12 00:51:19;;;;;;;8.02;3.65;;;7.70;96.80;;;;;;5022004;28;20116;-86
2021/12/12 00:53:45;;;;;;;6.95;3.60;;;7.70;96.80;;;;;;4990448;28;20292;-86
2021/12/12 00:56:12;;;;;;;6.78;3.45;;;7.70;96.80;;;;;;5025618;28;20079;-87
2021/12/12 00:58:38;;;;;;;5.60;3.40;;;7.70;96.80;;;;;;5004234;28;20492;-87
2021/12/12 01:01:09;;;;;;;6.30;3.20;;;7.70;96.90;;;;;;5006051;28;20029;-87
2021/12/12 01:03:40;;;;;;;7.22;3.70;;;7.80;96.90;;;;;;4999459;28;20060;-86
2021/12/12 01:06:08;;;;;;;7.57;3.33;;;7.80;96.80;;;;;;5032830;28;20033;-87
2021/12/12 01:08:35;;;;;;;7.28;3.50;;;7.80;96.90;;;;;;5009540;28;20090;-86
2021/12/12 01:11:13;;;;;;;5.95;3.42;;;7.80;96.90;;;;;;5033716;28;20029;-87
2021/12/12 01:13:39;;;;;;;7.47;3.38;;;7.80;96.80;;;;;;5021163;28;20565;-86
2021/12/12 01:16:06;;;;;;;9.05;3.63;;;7.80;96.80;;;;;;5021606;28;20178;-86
2021/12/12 01:18:36;;;;;;;8.30;3.33;;;7.80;96.80;;;;;;5008221;28;20040;-86
2021/12/12 01:21:11;;;;;;;7.78;3.53;;;7.80;96.80;;;;;;5007375;28;20186;-86
2021/12/12 01:23:50;;;;;;;7.45;2.92;;;7.80;96.80;;;;;;5013854;28;20202;-86
2021/12/12 01:26:17;;;;;;;7.38;3.50;;;7.80;96.80;;;;;;5041437;28;20037;-86
2021/12/12 01:28:45;;;;;;;6.18;2.88;;;7.80;96.80;;;;;;5013347;28;20318;-87
2021/12/12 01:31:23;;;;;;;6.18;2.97;;;7.80;96.90;;;;;;5019978;28;20029;-87
2021/12/12 01:33:57;;;;;;;8.82;3.25;;;7.80;96.90;;;;;;5030206;28;20493;-88
2021/12/12 01:36:24;;;;;;;12.13;3.78;;;7.80;96.90;;;;;;4999799;28;20381;-87
2021/12/12 01:38:56;;;;;;;7.47;3.53;;;7.80;97.00;;;;;;5018320;28;20224;-87
2021/12/12 01:41:48;;;;;;;9.85;3.90;;;7.80;97.00;;;;;;5002963;28;20070;-87
2021/12/12 01:44:19;;;;;;;6.97;3.35;;;7.80;96.90;;;;;;5031240;28;20039;-87
2021/12/12 01:46:59;;;;;;;6.18;3.05;;;7.80;97.00;;;;;;5024759;28;20438;-87
2021/12/12 01:49:27;;;;;;;8.07;3.53;;;7.80;97.00;;;;;;5023526;28;20384;-87
2021/12/12 01:51:54;;;;;;;7.18;3.50;;;7.90;97.10;;;;;;5024351;28;20036;-87
2021/12/12 01:54:25;;;;;;;5.72;3.00;;;7.90;97.20;;;;;;5012698;28;20039;-87
2021/12/12 01:56:55;;;;;;;8.25;3.22;;;7.80;97.20;;;;;;5021782;28;20515;-87
2021/12/12 01:59:27;;;;;;;5.70;2.45;;;7.90;97.20;;;;;;5037071;28;20033;-87
2021/12/12 02:02:05;;;;;;;6.75;2.85;;;7.90;97.50;;;;;;5004315;28;20239;-86
2021/12/12 02:04:40;;;;;;;5.22;3.30;;;7.90;97.30;;;;;;5023993;28;20033;-86
2021/12/12 02:07:07;;;;;;;6.30;2.60;;;7.90;97.20;;;;;;5008878;28;20024;-86
2021/12/12 02:09:33;;;;;;;4.75;2.67;;;7.90;97.20;;;;;;5038046;28;20029;-86
2021/12/12 02:12:00;;;;;;;4.63;2.72;;;7.90;97.20;;;;;;5003989;28;20457;-87
2021/12/12 02:14:29;;;;;;;5.82;2.80;;;7.90;97.30;;;;;;5037245;28;20413;-86
2021/12/12 02:17:03;;;;;;;11.20;3.28;;;7.90;97.30;;;;;;5024948;28;20537;-87
2021/12/12 02:19:46;;;;;;;6.68;2.67;;;8.00;97.30;;;;;;5012909;28;20033;-87
2021/12/12 02:36:03;;;;;;;5.18;2.67;;;8.00;97.40;;;;;;5027266;28;20110;-86
2021/12/12 02:38:32;;;;;;;7.05;2.80;;;8.00;97.50;;;;;;5017966;28;20113;-86
2021/12/12 02:41:07;;;;;;;7.35;3.20;;;8.00;97.50;;;;;;5024468;28;20227;-86
2021/12/12 02:43:38;;;;;;;5.82;2.85;;;8.10;97.50;;;;;;5012550;28;20489;-85
2021/12/12 02:46:04;;;;;;;5.50;2.85;;;8.10;97.50;;;;;;5043374;28;20045;-86
2021/12/12 02:48:34;;;;;;;4.88;2.50;;;8.10;97.50;;;;;;5038423;28;20024;-86
2021/12/12 02:51:16;;;;;;;4.13;1.98;;;8.10;97.50;;;;;;5018748;28;20066;-87
2021/12/12 02:53:47;;;;;;;3.70;2.30;;;8.10;97.50;;;;;;4999598;28;20108;-87
2021/12/12 02:56:18;;;;;;;4.50;2.35;;;8.10;97.60;;;;;;5016421;28;20020;-87
2021/12/12 02:58:44;;;;;;;7.13;2.70;;;8.10;97.50;;;;;;5033767;28;20118;-86
2021/12/12 03:01:31;;;;;;;13.45;4.80;;;8.10;97.60;;;;;;5022940;28;20401;-86
2021/12/12 03:03:57;;;;;;;8.85;3.10;;;8.10;97.50;;;;;;5017192;28;20040;-88
2021/12/12 03:06:27;;;;;;;6.95;3.60;;;8.20;97.60;;;;;;5028873;28;20078;-87
2021/12/12 03:08:58;;;;;;;6.53;3.83;;;8.20;97.60;;;;;;5001434;28;21610;-86
2021/12/12 03:11:27;;;;;;;4.95;3.13;;;8.20;97.70;;;;;;5039981;28;20020;-88
2021/12/12 03:13:53;;;;;;;7.55;2.95;;;8.20;97.70;;;;;;5042180;28;20071;-88
2021/12/12 03:16:19;;;;;;;5.20;2.70;;;8.20;97.70;;;;;;5010256;28;20251;-86
2021/12/12 03:18:46;;;;;;;5.95;2.47;;;8.20;97.70;;;;;;5040639;28;20095;-86
2021/12/12 03:21:32;;;;;;;6.50;2.75;;;8.20;97.70;;;;;;5028210;28;20032;-88
2021/12/12 03:24:22;;;;;;;8.25;2.97;;;8.20;97.60;;;;;;5008573;28;20025;-86
2021/12/12 03:26:51;;;;;;;4.97;2.15;;;8.30;97.60;;;;;;5005190;28;20114;-87
2021/12/12 03:29:17;;;;;;;4.82;2.55;;;8.30;97.70;;;;;;5025277;28;20227;-86
2021/12/12 03:31:57;;;;;;;6.47;2.67;;;8.30;97.70;;;;;;5009958;28;20039;-86
2021/12/12 03:34:28;;;;;;;4.65;2.70;;;8.30;97.60;;;;;;5012738;28;20540;-86
2021/12/12 03:36:54;;;;;;;5.90;2.58;;;8.30;97.70;;;;;;5015772;28;20044;-87
2021/12/12 03:39:26;;;;;;;5.80;2.53;;;8.30;97.80;;;;;;5030894;28;20226;-87
2021/12/12 03:41:57;;;;;;;4.60;2.65;;;8.30;97.70;;;;;;5017033;28;20037;-87
2021/12/12 03:44:25;;;;;;;4.88;3.03;;;8.40;97.80;;;;;;5008859;28;20051;-86
2021/12/12 03:47:02;;;;;;;5.50;3.03;;;8.40;97.80;;;;;;5027426;28;20028;-87
2021/12/12 03:49:28;;;;;;;5.20;2.50;;;8.40;97.80;;;;;;5048624;28;20017;-86
2021/12/12 03:51:54;;;;;;;4.15;2.20;;;8.40;97.90;;;;;;5007236;28;20029;-86
2021/12/12 03:54:20;;;;;;;4.03;2.25;;;8.50;97.90;;;;;;5032117;28;20520;-86
2021/12/12 03:56:46;;;;;;;6.13;2.63;;;8.40;98.00;;;;;;4990851;28;20074;-87
2021/12/12 03:59:14;;;;;;;6.75;2.60;;;8.50;98.00;;;;;;5019650;28;21046;-86
2021/12/12 04:01:44;;;;;;;5.28;2.40;;;8.50;98.00;;;;;;5012296;28;20078;-86
2021/12/12 04:04:21;;;;;;;6.00;3.28;;;8.50;98.00;;;;;;5024907;28;20735;-87
2021/12/12 04:06:49;;;;;;;4.18;2.60;;;8.60;98.00;;;;;;5018927;28;20408;-87
2021/12/12 04:09:17;;;;;;;4.43;2.50;;;8.60;98.10;;;;;;5038057;28;20115;-85
2021/12/12 04:11:49;;;;;;;3.80;2.63;;;8.60;98.10;;;;;;5015391;28;20106;-86
2021/12/12 04:14:16;;;;;;;3.60;2.42;;;8.60;98.10;;;;;;5022045;28;20589;-87
2021/12/12 04:16:46;;;;;;;4.13;2.83;;;8.70;98.50;;;;;;5014065;28;20035;-86
2021/12/12 04:19:11;;;;;;;3.47;2.78;;;8.70;98.10;;;;;;5040406;28;20222;-86
2021/12/12 04:21:39;;;;;;;7.15;3.00;;;8.70;98.20;;;;;;5015972;28;20047;-86
2021/12/12 04:24:05;;;;;;;3.13;2.47;;;8.70;98.10;;;;;;5008667;28;20559;-86
2021/12/12 04:26:42;;;;;;;4.13;2.28;;;8.80;98.10;;;;;;5019665;28;20025;-86
2021/12/12 04:29:16;;;;;;;4.13;2.60;;;8.80;98.10;;;;;;4999578;28;20242;-85
2021/12/12 04:31:45;;;;;;;3.58;2.58;;;8.80;98.10;;;;;;5014920;28;20029;-86
2021/12/12 04:34:12;;;;;;;4.00;2.28;;;8.80;98.10;;;;;;5007070;28;20021;-86
2021/12/12 04:36:47;;;;;;;2.95;2.38;;;8.80;98.10;;;;;;5018027;28;20032;-86
2021/12/12 04:39:18;;;;;;;3.65;2.90;;;8.80;98.00;;;;;;5003796;28;20032;-86
2021/12/12 04:41:46;;;;;;;2.92;2.63;;;8.90;98.10;;;;;;5018031;28;20413;-87
2021/12/12 04:44:12;;;;;;;3.70;2.70;;;8.90;98.10;;;;;;4999688;28;20166;-87
2021/12/12 04:52:21;;;;;;;3.78;3.28;;;8.90;98.00;;;;;;5030151;28;20135;-87
2021/12/12 04:54:57;;;;;;;7.63;5.15;;;9.00;98.10;;;;;;5016137;28;20104;-87
2021/12/12 04:57:29;;;;;;;5.75;3.33;;;8.90;98.00;;;;;;5031234;28;20056;-87
2021/12/12 05:00:06;;;;;;;5.03;3.50;;;9.00;98.00;;;;;;5002427;28;20025;-86
2021/12/12 05:02:48;;;;;;;5.07;3.25;;;9.00;97.90;;;;;;5040447;28;20024;-86
2021/12/12 05:05:21;;;;;;;3.80;3.22;;;9.00;97.90;;;;;;5029896;28;20424;-86
2021/12/12 05:08:05;;;;;;;4.60;3.10;;;9.00;98.00;;;;;;5031187;28;20111;-86
2021/12/12 05:10:38;;;;;;;3.65;2.92;;;9.00;97.90;;;;;;5034313;28;20032;-86
2021/12/12 05:13:10;;;;;;;4.47;3.47;;;9.10;97.90;;;;;;5001933;28;20037;-86
2021/12/12 05:15:45;;;;;;;3.83;3.40;;;9.10;98.30;;;;;;5005366;28;20035;-87
2021/12/12 05:18:15;;;;;;;3.28;2.83;;;9.10;97.90;;;;;;5029955;28;20101;-86
2021/12/12 05:20:48;;;;;;;3.67;3.20;;;9.10;97.90;;;;;;5021475;28;20048;-86
2021/12/12 05:23:17;;;;;;;3.20;2.90;;;9.10;97.90;;;;;;5015215;28;20206;-85
2021/12/12 05:25:49;;;;;;;3.33;2.60;;;9.10;97.90;;;;;;5010491;28;20291;-88
2021/12/12 05:28:18;;;;;;;3.05;2.75;;;9.10;97.90;;;;;;5018950;28;20413;-86
2021/12/12 05:30:45;;;;;;;4.97;3.47;;;9.10;97.90;;;;;;5002506;28;20039;-88
2021/12/12 05:33:14;;;;;;;4.40;3.00;;;9.20;97.80;;;;;;5033015;28;20029;-86
2021/12/12 05:35:41;;;;;;;3.85;3.15;;;9.20;97.90;;;;;;5004098;28;20733;-86
2021/12/12 05:38:09;;;;;;;3.72;2.72;;;9.20;97.90;;;;;;5020458;28;20033;-86
2021/12/12 05:40:38;;;;;;;4.50;3.33;;;9.20;97.90;;;;;;5032567;28;21014;-86
2021/12/12 05:43:06;;;;;;;4.20;3.40;;;9.20;97.90;;;;;;4987853;28;20038;-86
2021/12/12 05:45:33;;;;;;;4.00;3.50;;;9.20;97.90;;;;;;5029380;28;20039;-84
2021/12/12 05:48:00;;;;;;;3.63;3.28;;;9.20;97.90;;;;;;5011734;28;20059;-86
2021/12/12 05:50:27;;;;;;;3.25;2.85;;;9.30;97.90;;;;;;5019109;28;20047;-86
2021/12/12 05:52:54;;;;;;;4.20;3.40;;;9.20;97.90;;;;;;5026771;28;20021;-86
2021/12/12 05:55:24;;;;;;;3.28;2.97;;;9.30;97.90;;;;;;5003599;28;20087;-86
2021/12/12 05:57:55;;;;;;;3.30;2.97;;;9.30;97.90;;;;;;5012745;28;20029;-84
2021/12/12 06:00:27;;;;;;;3.38;2.92;;;9.30;97.90;;;;;;5003543;28;20629;-87
2021/12/12 06:02:54;;;;;;;3.85;3.17;;;9.30;97.90;;;;;;4991521;28;20037;-85
2021/12/12 06:05:21;;;;;;;3.45;2.92;;;9.30;98.20;;;;;;5027801;28;20033;-85
2021/12/12 06:07:49;;;;;;;4.70;2.70;;;9.40;98.00;;;;;;5026940;28;20067;-86
2021/12/12 06:10:16;;;;;;;3.20;2.65;;;9.40;97.90;;;;;;5027970;28;20033;-87
2021/12/12 06:12:43;;;;;;;3.10;2.60;;;9.40;97.90;;;;;;5008412;28;20032;-87
2021/12/12 06:15:14;;;;;;;3.10;2.78;;;9.40;97.90;;;;;;5006293;28;20039;-86
2021/12/12 06:17:40;;;;;;;4.60;3.00;;;9.40;97.90;;;;;;5003221;28;20029;-87
2021/12/12 06:20:09;;;;;;;3.63;2.42;;;9.40;97.90;;;;;;5026089;28;20452;-87
2021/12/12 06:22:36;;;;;;;4.65;3.38;;;9.40;97.90;;;;;;5016280;28;20057;-87
2021/12/12 06:25:03;;;;;;;3.45;3.08;;;9.50;97.90;;;;;;5001530;28;20119;-86
2021/12/12 06:27:29;;;;;;;3.90;3.40;;;9.50;97.90;;;;;;4996781;28;20056;-86
2021/12/12 06:29:55;;;;;;;3.40;2.75;;;9.50;97.90;;;;;;5010518;28;20128;-86
2021/12/12 06:32:22;;;;;;;3.38;2.63;;;9.50;97.90;;;;;;5001722;28;20385;-85
2021/12/12 06:34:49;;;;;;;3.90;3.00;;;9.50;97.90;;;;;;5015826;28;20051;-86
2021/12/12 06:37:16;;;;;;;3.40;2.90;;;9.50;97.90;;;;;;5009275;28;20052;-88
2021/12/12 06:39:43;;;;;;;4.13;2.92;;;9.50;97.90;;;;;;5039205;28;20036;-84
2021/12/12 06:42:13;;;;;;;4.53;2.95;;;9.50;97.90;;;;;;5033315;28;20108;-85
2021/12/12 06:44:41;;;;;;;5.50;3.63;;;9.60;97.90;;;;;;5023052;28;20686;-85
2021/12/12 06:47:09;;;;;;;3.92;2.83;;;9.50;97.90;;;;;;4998473;28;20064;-87
2021/12/12 06:49:36;;;;;;;5.70;3.50;;;9.60;98.00;;;;;;4999087;28;20421;-85
2021/12/12 06:52:05;;;;;;;5.32;3.50;;;9.60;98.00;;;;;;5014630;28;20033;-85
2021/12/12 06:54:31;;;;;;;4.75;3.42;;;9.60;98.00;;;;;;5008298;28;20261;-85
2021/12/12 06:57:00;;;;;;;5.47;3.15;;;9.60;98.00;;;;;;5001070;28;20029;-85
2021/12/12 06:59:29;;;;;;;5.70;3.30;;;9.60;98.00;;;;;;5005477;28;20131;-84
2021/12/12 07:01:58;;;;;;;5.95;3.05;;;9.60;98.00;;;;;;5026101;28;20033;-86
2021/12/12 07:04:24;;;;;;;6.25;3.40;;;9.60;98.00;;;;;;4994879;28;20040;-88
2021/12/12 07:06:57;;;;;;;4.50;3.10;;;9.70;98.10;;;;;;5006209;28;20326;-86
2021/12/12 07:09:24;;;;;;;8.52;4.00;;;9.70;98.00;;;;;;5001060;28;20032;-88
2021/12/12 07:11:50;;;;;;;4.63;3.42;;;9.70;98.00;;;;;;4991349;28;20112;-86
2021/12/12 07:14:16;;;;;;;5.57;3.55;;;9.70;98.00;;;;;;5020151;28;20362;-86
2021/12/12 07:16:43;;;;;;;6.93;4.32;;;9.80;98.10;;;;;;5014861;28;20029;-86
2021/12/12 07:19:10;;;;;;;6.85;4.03;;;9.70;98.00;;;;;;4994983;28;20437;-85
2021/12/12 07:21:37;;;;;;;7.13;4.30;;;9.80;98.00;;;;;;5043354;28;20033;-86
2021/12/12 07:24:05;;;;;;;5.75;4.25;;;9.80;98.00;;;;;;5049225;28;20226;-85
2021/12/12 07:26:31;;;;;;;8.88;4.90;;;9.80;98.00;;;;;;5010401;28;20024;-85
2021/12/12 07:28:58;;;;;;;10.70;5.43;;;9.80;98.00;;;;;;5036623;28;20033;-85
2021/12/12 07:31:27;;;;;;;11.25;5.03;;;9.80;98.00;;;;;;5008274;28;20532;-87
2021/12/12 07:33:57;;;;;;;7.25;4.20;;;9.80;98.10;;;;;;5022680;28;20104;-86
2021/12/12 07:36:23;;;;;;;9.60;4.93;;;9.90;98.10;;;;;;5022075;28;20033;-87
2021/12/12 07:39:01;;;;;;;8.00;5.15;;;9.90;98.20;;;;;;5011165;28;20123;-86
2021/12/12 07:41:29;;;;;;;9.45;5.00;;;9.90;98.10;;;;;;5020701;28;20123;-85
2021/12/12 07:43:56;;;;;;;8.50;4.35;;;9.90;98.20;;;;;;5043398;28;20028;-88
2021/12/12 07:46:23;;;;;;;9.48;5.05;;;10.00;98.20;;;;;;5001512;28;20309;-85
2021/12/12 07:48:50;;;;;;;9.30;4.95;;;10.00;98.20;;;;;;5032108;28;20345;-86
2021/12/12 07:51:17;;;;;;;10.50;5.35;;;10.00;98.30;;;;;;5009999;28;20154;-86
2021/12/12 07:53:43;;;;;;;10.63;5.22;;;10.00;98.30;;;;;;5015576;28;20037;-85
2021/12/12 07:56:10;;;;;;;8.90;5.20;;;10.00;98.30;;;;;;5020150;28;20029;-86
2021/12/12 07:58:36;;;;;;;8.85;5.38;;;10.10;98.30;;;;;;5000613;28;20032;-86
2021/12/12 08:01:04;;;;;;;9.27;5.43;;;10.10;98.30;;;;;;5026161;28;20036;-85
2021/12/12 08:03:33;;;;;;;11.00;5.65;;;10.10;98.30;;;;;;5001002;28;20123;-87
2021/12/12 08:06:00;;;;;;;9.55;4.55;;;10.10;98.30;;;;;;5005648;28;20082;-84
2021/12/12 08:08:28;;;;;;;9.50;5.25;;;10.20;98.40;;;;;;5031497;28;20086;-86
2021/12/12 08:10:56;;;;;;;8.40;4.68;;;10.20;98.30;;;;;;5007221;28;20432;-87
2021/12/12 08:13:22;;;;;;;10.93;5.90;;;10.20;98.40;;;;;;5020910;28;20491;-87
2021/12/12 08:15:48;;;;;;;7.78;4.85;;;10.20;98.30;;;;;;5041528;28;20020;-86
2021/12/12 08:18:16;;;;;;;11.98;5.47;;;10.20;98.30;;;;;;5011014;28;20274;-85
2021/12/12 08:20:44;;;;;;;12.23;5.57;;;10.30;98.30;;;;;;5007042;28;20040;-86
2021/12/12 08:23:12;;;;;;;10.15;5.05;;;10.30;98.30;;;;;;5021065;28;20055;-87
2021/12/12 08:25:38;;;;;;;8.70;4.70;;;10.40;98.30;;;;;;5028049;28;20109;-85
2021/12/12 08:28:05;;;;;;;9.27;5.13;;;10.30;98.30;;;;;;5016496;28;20095;-86
2021/12/12 08:30:33;;;;;;;9.40;5.68;;;10.40;98.30;;;;;;4998019;28;20048;-87
2021/12/12 08:32:59;;;;;;;8.25;5.28;;;10.40;98.30;;;;;;5011932;28;20032;-85
2021/12/12 08:35:27;;;;;;;9.70;5.40;;;10.40;98.30;;;;;;5014888;28;20029;-86
2021/12/12 08:37:54;;;;;;;9.48;5.68;;;10.40;98.20;;;;;;5026620;28;20441;-87
2021/12/12 08:40:25;;;;;;;10.10;4.85;;;10.40;98.20;;;;;;5029857;28;20037;-86
2021/12/12 08:42:52;;;;;;;8.50;4.88;;;10.40;98.20;;;;;;5057728;28;20029;-87
2021/12/12 08:45:24;;;;;;;10.02;5.70;;;10.40;98.20;;;;;;5008675;28;20593;-85
2021/12/12 08:47:50;;;;;;;7.78;4.03;;;10.40;98.10;;;;;;5016019;28;20457;-85
2021/12/12 08:50:23;;;;;;;10.48;5.82;;;10.50;98.20;;;;;;5033136;28;20330;-86
2021/12/12 08:52:50;;;;;;;9.65;5.75;;;10.50;98.10;;;;;;5041408;28;20285;-85
2021/12/12 08:55:20;;;;;;;9.63;5.50;;;10.50;98.10;;;;;;5015960;28;20528;-85
2021/12/12 08:57:59;;;;;;;9.88;5.72;;;10.50;98.10;;;;;;5006170;28;20433;-86
2021/12/12 09:00:28;;;;;;;7.78;5.13;;;10.50;98.10;;;;;;5002816;28;20874;-86
2021/12/12 09:02:54;;;;;;;9.55;5.85;;;10.50;98.10;;;;;;4994240;28;20108;-88
2021/12/12 09:05:25;;;;;;;9.15;5.10;;;10.50;98.10;;;;;;5001050;28;20040;-86
2021/12/12 09:07:52;;;;;;;9.43;5.28;;;10.50;98.10;;;;;;4993832;28;20132;-86
2021/12/12 09:10:34;;;;;;;7.45;4.70;;;10.50;98.10;;;;;;5039315;28;20119;-86
2021/12/12 09:13:06;;;;;;;10.18;5.25;;;10.50;98.00;;;;;;5018357;28;20741;-86
2021/12/12 09:15:40;;;;;;;8.48;5.45;;;10.50;98.10;;;;;;5023202;28;20082;-85
2021/12/12 09:18:33;;;;;;;8.57;5.55;;;10.50;97.90;;;;;;5018016;28;20124;-86
2021/12/12 09:21:13;;;;;;;10.60;5.60;;;10.60;97.90;;;;;;5015243;28;20119;-85
2021/12/12 09:23:50;;;;;;;8.93;5.38;;;10.60;97.70;;;;;;4985173;28;20063;-89
2021/12/12 09:26:23;;;;;;;8.40;5.05;;;10.60;97.80;;;;;;5010926;28;20052;-86
2021/12/12 09:29:30;;;;;;;11.18;6.07;;;10.60;97.90;;;;;;4999589;28;20230;-86
2021/12/12 09:32:10;;;;;;;10.73;6.00;;;10.60;98.00;;;;;;4963403;28;20050;-86
2021/12/12 09:34:51;;;;;;;7.07;4.88;;;10.60;98.00;;;;;;5003503;28;20367;-87
2021/12/12 09:37:27;;;;;;;8.38;5.53;;;10.60;98.10;;;;;;5000780;28;20123;-86
2021/12/12 09:40:05;;;;;;;10.27;5.97;;;10.60;98.10;;;;;;5033726;28;20037;-86
2021/12/12 09:42:49;;;;;;;7.28;5.43;;;10.60;98.20;;;;;;5047466;28;20317;-87
2021/12/12 09:45:39;;;;;;;8.40;5.25;;;10.70;98.30;;;;;;5009187;28;20543;-85
2021/12/12 09:51:50;;;;;;;7.22;4.53;;;10.70;98.10;;;;;;5022297;28;20051;-87
2021/12/12 09:54:34;;;;;;;7.72;4.40;;;10.70;98.40;;;;;;5019577;28;20035;-86
2021/12/12 09:57:05;;;;;;;12.15;5.90;;;10.80;98.30;;;;;;5046413;28;20025;-86
2021/12/12 10:00:10;;;;;;;9.73;5.25;;;10.80;98.30;;;;;;5019224;28;20123;-86
2021/12/12 10:02:38;;;;;;;;;;;10.80;98.30;;;;;;4994310;28;20055;-86
2021/12/12 10:05:14;;;;;;;8.82;5.30;;;10.80;97.80;;;;;;5026429;28;19910;-87
2021/12/12 10:08:01;;;;;;;6.88;4.95;;;10.90;98.20;;;;;;5006788;28;20039;-86
2021/12/12 10:10:57;;;;;;;7.88;5.45;;;10.90;98.10;;;;;;5012100;28;20024;-86
2021/12/12 10:13:52;;;;;;;8.00;4.25;;;10.90;98.10;;;;;;5032838;28;20532;-86
2021/12/12 10:16:31;;;;;;;7.93;5.32;;;10.90;98.10;;;;;;5017363;28;20493;-86
2021/12/12 10:19:07;;;;;;;7.22;5.25;;;10.90;98.30;;;;;;5016425;28;20412;-85
2021/12/12 10:21:52;;;;;;;7.95;5.53;;;11.00;98.00;;;;;;5008001;28;20202;-87
2021/12/12 10:24:26;;;;;;;9.32;5.45;;;11.00;97.90;;;;;;4992453;28;20036;-86
2021/12/12 10:27:22;;;;;;;12.52;7.15;;;10.90;98.10;;;;;;5024797;28;20140;-85
2021/12/12 10:30:07;;;;;;;7.32;4.95;;;11.00;97.90;;;;;;5007832;28;20049;-87
2021/12/12 10:32:45;;;;;;;7.90;5.32;;;10.90;97.90;;;;;;5034245;28;20127;-86
2021/12/12 10:35:16;;;;;;;8.43;5.65;;;11.00;98.00;;;;;;5029086;28;20025;-86
2021/12/12 10:38:08;;;;;;;6.55;4.80;;;11.00;98.00;;;;;;5020180;28;20745;-86
2021/12/12 10:40:47;;;;;;;8.18;5.80;;;11.00;97.70;;;;;;4989220;28;20029;-85
2021/12/12 10:43:22;;;;;;;9.25;6.47;;;11.00;97.90;;;;;;5023397;28;20012;-85
2021/12/12 10:46:06;;;;;;;8.55;5.40;;;11.00;98.00;;;;;;5024337;28;20064;-86
2021/12/12 10:48:37;;;;;;;;;;;11.00;98.00;;;;;;5020122;28;20054;-86
2021/12/12 10:51:11;;;;;;;7.15;4.45;;;11.00;97.40;;;;;;5023267;28;19919;-85
2021/12/12 10:53:46;;;;;;;9.77;5.85;;;11.00;98.30;;;;;;5015887;28;20230;-86
2021/12/12 10:56:49;;;;;;;10.02;5.95;;;11.00;98.10;;;;;;5015235;28;20035;-85
2021/12/12 10:59:27;;;;;;;6.68;5.38;;;11.00;97.70;;;;;;5020870;28;20025;-86
2021/12/12 11:01:57;;;;;;;7.22;4.88;;;11.10;98.00;;;;;;5031738;28;20130;-86
2021/12/12 11:04:32;;;;;;;7.72;5.57;;;11.10;98.20;;;;;;5016599;28;20024;-85
2021/12/12 11:07:10;;;;;;;7.88;6.05;;;11.10;98.40;;;;;;5025200;28;20029;-86
2021/12/12 11:09:59;;;;;;;8.05;5.43;;;11.10;98.00;;;;;;5019083;28;20319;-87
2021/12/12 11:12:28;;;;;;;7.47;5.20;;;11.10;97.80;;;;;;5008641;28;20055;-86
2021/12/12 11:15:10;;;;;;;9.00;6.43;;;11.10;98.20;;;;;;5022149;28;20111;-87
2021/12/12 11:17:44;;;;;;;8.10;6.22;;;11.10;98.00;;;;;;5014064;28;20020;-85
2021/12/12 11:20:29;;;;;;;9.73;6.85;;;11.10;98.00;;;;;;5014309;28;20028;-86
2021/12/12 11:23:04;;;;;;;8.98;6.22;;;11.10;97.80;;;;;;5030826;28;20112;-86
2021/12/12 11:25:34;;;;;;;9.93;6.22;;;11.10;98.00;;;;;;5015499;28;20732;-86
2021/12/12 11:28:06;;;;;;;9.55;6.65;;;11.10;98.00;;;;;;5004949;28;20032;-86
2021/12/12 11:30:43;;;;;;;9.90;6.60;;;11.20;98.00;;;;;;5011608;28;20154;-85
2021/12/12 11:33:12;;;;;;;8.23;5.90;;;11.20;98.10;;;;;;5013079;28;20370;-87
2021/12/12 11:35:40;;;;;;;9.25;5.63;;;11.10;98.10;;;;;;5042915;28;20032;-86
2021/12/12 11:38:20;;;;;;;8.43;6.70;;;11.20;98.10;;;;;;5027698;28;20052;-86
2021/12/12 11:41:12;;;;;;;8.65;5.97;;;11.20;98.00;;;;;;5017769;28;20028;-88
2021/12/12 11:43:48;;;;;;;7.13;5.63;;;11.20;98.10;;;;;;5018622;28;20127;-85
2021/12/12 11:46:18;;;;;;;8.93;6.15;;;11.20;98.20;;;;;;5042235;28;20581;-84
2021/12/12 11:49:00;;;;;;;9.10;6.63;;;11.20;98.20;;;;;;5042940;28;20036;-87
2021/12/12 11:51:38;;;;;;;8.02;6.18;;;11.20;98.20;;;;;;5024855;28;20222;-87
2021/12/12 11:54:10;;;;;;;10.57;7.20;;;11.20;98.40;;;;;;5009315;28;20525;-86
2021/12/12 11:56:46;;;;;;;9.98;7.68;;;11.30;98.40;;;;;;5024846;28;20035;-87
2021/12/12 11:59:41;;;;;;;9.15;6.90;;;11.30;98.30;;;;;;5047914;28;20033;-87
2021/12/12 12:02:46;;;;;;;8.57;6.80;;;11.30;98.20;;;;;;5027868;28;20693;-86
2021/12/12 12:05:26;;;;;;;;;;;11.40;98.20;;;;;;5004083;28;20033;-87
2021/12/12 12:08:15;;;;;;;8.77;5.93;;;11.40;97.90;;;;;;5022481;28;19912;-87
2021/12/12 12:11:15;;;;;;;7.43;6.28;;;11.40;98.20;;;;;;5007971;28;20033;-86
2021/12/12 12:13:48;;;;;;;8.88;6.38;;;11.40;98.20;;;;;;4996328;28;20029;-87
2021/12/12 12:16:52;;;;;;;7.72;5.35;;;11.40;98.20;;;;;;5023896;28;20270;-87
2021/12/12 12:19:51;;;;;;;8.65;5.78;;;11.40;98.20;;;;;;5020111;28;20041;-87
2021/12/12 12:22:35;;;;;;;6.38;4.70;;;11.40;98.20;;;;;;5020650;28;20044;-86
2021/12/12 12:28:29;;;;;;;7.30;5.70;;;11.50;98.10;;;;;;4953741;28;20433;-86
2021/12/12 12:31:08;;;;;;;9.00;6.10;;;11.50;98.30;;;;;;4997075;28;20077;-87
2021/12/12 12:33:52;;;;;;;7.60;5.78;;;11.50;98.40;;;;;;4997984;28;20037;-87
2021/12/12 12:36:37;;;;;;;6.82;5.82;;;11.50;98.30;;;;;;5012209;28;20040;-87
2021/12/12 12:39:24;;;;;;;7.88;6.50;;;11.50;98.20;;;;;;4986053;28;20543;-87
2021/12/12 12:42:21;;;;;;;7.18;5.85;;;11.50;98.50;;;;;;5004163;28;20090;-87
2021/12/12 12:45:20;;;;;;;8.18;6.25;;;11.50;98.40;;;;;;4933437;28;20035;-86
2021/12/12 12:48:14;;;;;;;6.10;5.05;;;11.60;98.60;;;;;;4983319;28;20051;-87
2021/12/12 12:51:17;;;;;;;6.68;5.20;;;11.60;98.60;;;;;;4991131;28;20094;-86
2021/12/12 12:54:11;;;;;;;8.23;6.07;;;11.60;98.60;;;;;;4986088;28;20045;-86
2021/12/12 12:57:17;;;;;;;7.63;6.20;;;11.70;98.60;;;;;;5004847;28;20433;-85
2021/12/12 13:00:08;;;;;;;7.90;5.82;;;11.70;98.50;;;;;;5005676;28;20032;-86
2021/12/12 13:03:04;;;;;;;8.35;5.95;;;11.80;98.60;;;;;;5006084;28;20065;-87
2021/12/12 13:05:57;;;;;;;6.70;5.70;;;11.80;98.60;;;;;;5018558;28;21497;-87
2021/12/12 13:08:50;;;;;;;7.53;5.85;;;11.80;98.60;;;;;;4991662;28;20121;-87
2021/12/12 13:11:16;;;;;;;7.70;6.03;;;11.80;98.50;;;;;;4989389;28;20593;-87
2021/12/12 13:13:52;;;;;;;7.72;5.63;;;11.90;98.70;;;;;;4995755;28;20037;-87
2021/12/12 13:16:36;;;;;;;9.23;5.68;;;11.90;98.70;;;;;;4980215;28;20029;-87
2021/12/12 13:19:13;;;;;;;7.75;5.85;;;11.90;98.60;;;;;;4987202;28;20590;-87
2021/12/12 13:22:02;;;;;;;7.43;5.55;;;11.90;98.60;;;;;;5006482;28;20017;-87
2021/12/12 13:24:57;;;;;;;6.85;5.18;;;12.00;98.70;;;;;;5004146;28;20120;-86
2021/12/12 13:27:52;;;;;;;;;;;12.00;98.60;;;;;;4983329;28;20038;-86
2021/12/12 13:30:30;;;;;;;5.38;3.80;;;12.00;98.20;;;;;;5016475;28;19915;-87
2021/12/12 13:33:11;;;;;;;4.75;4.07;;;12.00;98.60;;;;;;4975533;28;20037;-86
2021/12/12 13:35:40;;;;;;;4.85;3.92;;;12.00;98.60;;;;;;5000132;28;20127;-86
2021/12/12 13:38:19;;;;;;;5.30;4.68;;;12.10;98.80;;;;;;5013073;28;20227;-87
2021/12/12 13:41:23;;;;;;;4.82;4.00;;;12.10;98.70;;;;;;5025172;28;20076;-87
2021/12/12 13:44:11;;;;;;;4.95;4.28;;;12.10;98.60;;;;;;5001865;28;20078;-87
2021/12/12 13:46:53;;;;;;;6.93;4.90;;;12.10;98.60;;;;;;5009156;28;20394;-85
2021/12/12 13:49:35;;;;;;;4.50;3.90;;;12.20;98.60;;;;;;5006710;28;20031;-86
2021/12/12 13:52:32;;;;;;;5.05;4.00;;;12.20;98.60;;;;;;4989178;28;20317;-85
2021/12/12 13:55:13;;;;;;;4.60;4.15;;;12.20;98.60;;;;;;4986356;28;20478;-86